sensor_id;sensor_type;location;lat;lon;timestamp;P1;durP1;ratioP1;P2;durP2;ratioP2
52322;SDS011;38263;52.920;6.238;2024-03-23T00:52:57;20.38;;;4.80;;
52322;SDS011;38263;52.920;6.238;2024-03-23T00:55:23;17.00;;;5.20;;
52322;SDS011;38263;52.920;6.238;2024-03-23T00:57:49;19.95;;;4.03;;
52322;SDS011;38263;52.920;6.238;2024-03-23T01:00:15;20.15;;;4.25;;
52322;SDS011;38263;52.920;6.238;2024-03-23T01:02:41;15.85;;;4.47;;
52322;SDS011;38263;52.920;6.238;2024-03-23T01:05:07;16.83;;;3.97;;
52322;SDS011;38263;52.920;6.238;2024-03-23T01:07:33;14.77;;;4.43;;
52322;SDS011;38263;52.920;6.238;2024-03-23T01:09:59;20.25;;;4.70;;
52322;SDS011;38263;52.920;6.238;2024-03-23T01:12:25;22.17;;;5.05;;
52322;SDS011;38263;52.920;6.238;2024-03-23T01:14:51;16.85;;;4.22;;
52322;SDS011;38263;52.920;6.238;2024-03-23T01:17:17;20.17;;;4.82;;
52322;SDS011;38263;52.920;6.238;2024-03-23T01:19:43;16.33;;;4.65;;
52322;SDS011;38263;52.920;6.238;2024-03-23T01:22:09;16.00;;;4.45;;
52322;SDS011;38263;52.920;6.238;2024-03-23T01:24:35;18.98;;;4.22;;
52322;SDS011;38263;52.920;6.238;2024-03-23T01:27:02;20.63;;;4.75;;
52322;SDS011;38263;52.920;6.238;2024-03-23T01:29:28;26.77;;;4.70;;
52322;SDS011;38263;52.920;6.238;2024-03-23T01:31:54;14.65;;;4.80;;
52322;SDS011;38263;52.920;6.238;2024-03-23T01:34:20;17.90;;;4.45;;
52322;SDS011;38263;52.920;6.238;2024-03-23T01:36:46;18.80;;;4.82;;
52322;SDS011;38263;52.920;6.238;2024-03-23T01:39:13;23.42;;;5.03;;
52322;SDS011;38263;52.920;6.238;2024-03-23T01:41:39;17.83;;;5.57;;
52322;SDS011;38263;52.920;6.238;2024-03-23T01:44:07;26.42;;;5.43;;
52322;SDS011;38263;52.920;6.238;2024-03-23T01:46:36;18.30;;;4.18;;
52322;SDS011;38263;52.920;6.238;2024-03-23T01:49:03;24.60;;;4.57;;
52322;SDS011;38263;52.920;6.238;2024-03-23T01:51:29;21.80;;;4.80;;
52322;SDS011;38263;52.920;6.238;2024-03-23T01:53:56;18.83;;;4.63;;
52322;SDS011;38263;52.920;6.238;2024-03-23T01:56:22;24.45;;;4.57;;
52322;SDS011;38263;52.920;6.238;2024-03-23T01:58:48;19.92;;;3.90;;
52322;SDS011;38263;52.920;6.238;2024-03-23T02:01:15;14.07;;;4.10;;
52322;SDS011;38263;52.920;6.238;2024-03-23T02:03:41;19.17;;;4.75;;
52322;SDS011;38263;52.920;6.238;2024-03-23T02:06:07;15.80;;;4.25;;
52322;SDS011;38263;52.920;6.238;2024-03-23T02:08:33;19.88;;;3.70;;
52322;SDS011;38263;52.920;6.238;2024-03-23T02:11:00;20.27;;;4.50;;
52322;SDS011;38263;52.920;6.238;2024-03-23T02:13:26;21.75;;;5.57;;
52322;SDS011;38263;52.920;6.238;2024-03-23T02:15:52;20.88;;;4.68;;
52322;SDS011;38263;52.920;6.238;2024-03-23T02:18:18;15.25;;;6.20;;
52322;SDS011;38263;52.920;6.238;2024-03-23T02:20:44;16.10;;;4.38;;
52322;SDS011;38263;52.920;6.238;2024-03-23T02:23:16;19.38;;;5.32;;
52322;SDS011;38263;52.920;6.238;2024-03-23T02:25:46;28.60;;;4.85;;
52322;SDS011;38263;52.920;6.238;2024-03-23T02:28:12;18.27;;;4.50;;
52322;SDS011;38263;52.920;6.238;2024-03-23T02:30:38;17.75;;;3.33;;
52322;SDS011;38263;52.920;6.238;2024-03-23T02:33:04;23.05;;;4.45;;
52322;SDS011;38263;52.920;6.238;2024-03-23T02:35:30;18.58;;;4.68;;
52322;SDS011;38263;52.920;6.238;2024-03-23T02:37:56;19.30;;;3.72;;
52322;SDS011;38263;52.920;6.238;2024-03-23T02:40:23;20.42;;;4.47;;
52322;SDS011;38263;52.920;6.238;2024-03-23T02:42:49;16.05;;;4.22;;
52322;SDS011;38263;52.920;6.238;2024-03-23T02:45:15;16.52;;;4.05;;
52322;SDS011;38263;52.920;6.238;2024-03-23T02:47:42;19.33;;;3.88;;
52322;SDS011;38263;52.920;6.238;2024-03-23T02:50:08;16.13;;;4.25;;
52322;SDS011;38263;52.920;6.238;2024-03-23T02:52:34;17.30;;;4.07;;
52322;SDS011;38263;52.920;6.238;2024-03-23T02:55:01;14.32;;;3.72;;
52322;SDS011;38263;52.920;6.238;2024-03-23T02:57:27;12.45;;;3.22;;
52322;SDS011;38263;52.920;6.238;2024-03-23T02:59:53;19.52;;;4.20;;
52322;SDS011;38263;52.920;6.238;2024-03-23T03:02:20;17.92;;;3.75;;
52322;SDS011;38263;52.920;6.238;2024-03-23T03:04:46;13.43;;;3.83;;
52322;SDS011;38263;52.920;6.238;2024-03-23T03:07:12;13.48;;;4.22;;
52322;SDS011;38263;52.920;6.238;2024-03-23T03:09:38;12.38;;;4.18;;
52322;SDS011;38263;52.920;6.238;2024-03-23T03:12:08;18.05;;;4.95;;
52322;SDS011;38263;52.920;6.238;2024-03-23T03:14:34;14.63;;;3.83;;
52322;SDS011;38263;52.920;6.238;2024-03-23T03:17:00;19.58;;;4.47;;
52322;SDS011;38263;52.920;6.238;2024-03-23T03:19:26;18.65;;;4.13;;
52322;SDS011;38263;52.920;6.238;2024-03-23T03:21:52;21.85;;;4.25;;
52322;SDS011;38263;52.920;6.238;2024-03-23T03:24:19;19.80;;;4.35;;
52322;SDS011;38263;52.920;6.238;2024-03-23T03:26:45;19.42;;;4.82;;
52322;SDS011;38263;52.920;6.238;2024-03-23T03:29:11;15.93;;;3.72;;
52322;SDS011;38263;52.920;6.238;2024-03-23T03:31:37;14.88;;;3.78;;
52322;SDS011;38263;52.920;6.238;2024-03-23T03:34:03;21.73;;;4.68;;
52322;SDS011;38263;52.920;6.238;2024-03-23T03:36:29;19.48;;;4.40;;
52322;SDS011;38263;52.920;6.238;2024-03-23T03:38:55;16.70;;;4.15;;
52322;SDS011;38263;52.920;6.238;2024-03-23T03:41:21;21.83;;;3.83;;
52322;SDS011;38263;52.920;6.238;2024-03-23T03:43:47;17.40;;;5.57;;
52322;SDS011;38263;52.920;6.238;2024-03-23T03:46:13;16.13;;;3.42;;
52322;SDS011;38263;52.920;6.238;2024-03-23T03:48:39;12.20;;;4.68;;
52322;SDS011;38263;52.920;6.238;2024-03-23T03:51:05;14.68;;;4.13;;
52322;SDS011;38263;52.920;6.238;2024-03-23T03:53:31;15.30;;;3.10;;
52322;SDS011;38263;52.920;6.238;2024-03-23T03:56:01;15.55;;;4.43;;
52322;SDS011;38263;52.920;6.238;2024-03-23T03:58:27;15.63;;;3.80;;
52322;SDS011;38263;52.920;6.238;2024-03-23T04:00:53;20.38;;;4.18;;
52322;SDS011;38263;52.920;6.238;2024-03-23T04:03:19;13.73;;;3.20;;
52322;SDS011;38263;52.920;6.238;2024-03-23T04:05:51;17.90;;;3.65;;
52322;SDS011;38263;52.920;6.238;2024-03-23T04:08:18;17.63;;;3.58;;
52322;SDS011;38263;52.920;6.238;2024-03-23T04:10:44;13.25;;;3.13;;
52322;SDS011;38263;52.920;6.238;2024-03-23T04:13:10;15.38;;;3.80;;
52322;SDS011;38263;52.920;6.238;2024-03-23T04:15:36;12.00;;;3.28;;
52322;SDS011;38263;52.920;6.238;2024-03-23T04:18:02;15.60;;;3.50;;
52322;SDS011;38263;52.920;6.238;2024-03-23T04:20:28;17.27;;;3.88;;
52322;SDS011;38263;52.920;6.238;2024-03-23T04:22:54;16.15;;;3.83;;
52322;SDS011;38263;52.920;6.238;2024-03-23T04:25:20;17.35;;;3.45;;
52322;SDS011;38263;52.920;6.238;2024-03-23T04:27:46;12.07;;;3.25;;
52322;SDS011;38263;52.920;6.238;2024-03-23T04:30:12;11.13;;;3.08;;
52322;SDS011;38263;52.920;6.238;2024-03-23T04:32:38;15.93;;;4.22;;
52322;SDS011;38263;52.920;6.238;2024-03-23T04:35:05;11.85;;;3.10;;
52322;SDS011;38263;52.920;6.238;2024-03-23T04:37:32;15.52;;;3.15;;
52322;SDS011;38263;52.920;6.238;2024-03-23T04:39:59;15.27;;;3.05;;
52322;SDS011;38263;52.920;6.238;2024-03-23T04:42:26;19.23;;;3.20;;
52322;SDS011;38263;52.920;6.238;2024-03-23T04:44:52;14.85;;;3.28;;
52322;SDS011;38263;52.920;6.238;2024-03-23T04:47:18;8.45;;;2.33;;
52322;SDS011;38263;52.920;6.238;2024-03-23T04:49:44;10.63;;;2.92;;
52322;SDS011;38263;52.920;6.238;2024-03-23T04:52:10;18.80;;;2.55;;
52322;SDS011;38263;52.920;6.238;2024-03-23T04:54:37;17.73;;;3.53;;
52322;SDS011;38263;52.920;6.238;2024-03-23T04:57:05;13.75;;;3.40;;
52322;SDS011;38263;52.920;6.238;2024-03-23T04:59:31;12.13;;;3.15;;
52322;SDS011;38263;52.920;6.238;2024-03-23T05:01:57;12.18;;;2.70;;
52322;SDS011;38263;52.920;6.238;2024-03-23T05:04:23;15.27;;;3.10;;
52322;SDS011;38263;52.920;6.238;2024-03-23T05:06:49;19.98;;;3.28;;
52322;SDS011;38263;52.920;6.238;2024-03-23T05:09:15;15.00;;;3.10;;
52322;SDS011;38263;52.920;6.238;2024-03-23T05:11:41;13.57;;;2.85;;
52322;SDS011;38263;52.920;6.238;2024-03-23T05:14:07;9.75;;;2.95;;
52322;SDS011;38263;52.920;6.238;2024-03-23T05:16:33;14.20;;;2.95;;
52322;SDS011;38263;52.920;6.238;2024-03-23T05:19:00;18.38;;;2.67;;
52322;SDS011;38263;52.920;6.238;2024-03-23T05:21:26;15.10;;;3.42;;
52322;SDS011;38263;52.920;6.238;2024-03-23T05:23:53;10.20;;;2.83;;
52322;SDS011;38263;52.920;6.238;2024-03-23T05:26:19;12.68;;;2.92;;
52322;SDS011;38263;52.920;6.238;2024-03-23T05:28:45;12.30;;;2.83;;
52322;SDS011;38263;52.920;6.238;2024-03-23T05:31:11;15.50;;;3.00;;
52322;SDS011;38263;52.920;6.238;2024-03-23T05:33:37;13.55;;;2.45;;
52322;SDS011;38263;52.920;6.238;2024-03-23T05:36:03;14.43;;;3.08;;
52322;SDS011;38263;52.920;6.238;2024-03-23T05:38:30;7.10;;;2.50;;
52322;SDS011;38263;52.920;6.238;2024-03-23T05:40:56;11.05;;;2.35;;
52322;SDS011;38263;52.920;6.238;2024-03-23T05:43:22;14.23;;;2.67;;
52322;SDS011;38263;52.920;6.238;2024-03-23T05:45:58;15.82;;;3.55;;
52322;SDS011;38263;52.920;6.238;2024-03-23T05:48:25;13.32;;;2.60;;
52322;SDS011;38263;52.920;6.238;2024-03-23T05:50:51;14.90;;;3.67;;
52322;SDS011;38263;52.920;6.238;2024-03-23T05:53:18;14.95;;;2.95;;
52322;SDS011;38263;52.920;6.238;2024-03-23T05:55:47;19.15;;;3.05;;
52322;SDS011;38263;52.920;6.238;2024-03-23T05:58:14;20.27;;;4.47;;
52322;SDS011;38263;52.920;6.238;2024-03-23T06:00:40;9.10;;;2.70;;
52322;SDS011;38263;52.920;6.238;2024-03-23T06:03:09;8.80;;;2.78;;
52322;SDS011;38263;52.920;6.238;2024-03-23T06:05:36;6.00;;;1.73;;
52322;SDS011;38263;52.920;6.238;2024-03-23T06:08:02;7.22;;;2.10;;
52322;SDS011;38263;52.920;6.238;2024-03-23T06:10:28;6.72;;;1.73;;
52322;SDS011;38263;52.920;6.238;2024-03-23T06:12:54;6.15;;;1.92;;
52322;SDS011;38263;52.920;6.238;2024-03-23T06:15:21;7.15;;;1.92;;
52322;SDS011;38263;52.920;6.238;2024-03-23T06:17:47;4.63;;;1.65;;
52322;SDS011;38263;52.920;6.238;2024-03-23T06:20:14;10.80;;;2.15;;
52322;SDS011;38263;52.920;6.238;2024-03-23T06:22:40;5.45;;;1.92;;
52322;SDS011;38263;52.920;6.238;2024-03-23T06:25:06;5.47;;;2.13;;
52322;SDS011;38263;52.920;6.238;2024-03-23T06:27:32;10.05;;;2.03;;
52322;SDS011;38263;52.920;6.238;2024-03-23T06:29:59;9.30;;;2.70;;
52322;SDS011;38263;52.920;6.238;2024-03-23T06:32:25;9.90;;;2.75;;
52322;SDS011;38263;52.920;6.238;2024-03-23T06:34:52;10.40;;;2.85;;
52322;SDS011;38263;52.920;6.238;2024-03-23T06:37:18;15.68;;;2.75;;
52322;SDS011;38263;52.920;6.238;2024-03-23T06:39:45;7.53;;;2.17;;
52322;SDS011;38263;52.920;6.238;2024-03-23T06:42:11;11.27;;;2.55;;
52322;SDS011;38263;52.920;6.238;2024-03-23T06:44:38;7.07;;;2.47;;
52322;SDS011;38263;52.920;6.238;2024-03-23T06:47:04;8.88;;;2.85;;
52322;SDS011;38263;52.920;6.238;2024-03-23T06:49:30;10.32;;;2.85;;
52322;SDS011;38263;52.920;6.238;2024-03-23T06:51:56;8.77;;;2.65;;
52322;SDS011;38263;52.920;6.238;2024-03-23T06:54:22;6.65;;;2.60;;
52322;SDS011;38263;52.920;6.238;2024-03-23T06:56:48;6.50;;;2.08;;
52322;SDS011;38263;52.920;6.238;2024-03-23T06:59:14;13.48;;;3.20;;
52322;SDS011;38263;52.920;6.238;2024-03-23T07:01:40;9.85;;;3.00;;
52322;SDS011;38263;52.920;6.238;2024-03-23T07:04:07;12.40;;;3.22;;
52322;SDS011;38263;52.920;6.238;2024-03-23T07:06:33;8.60;;;2.63;;
52322;SDS011;38263;52.920;6.238;2024-03-23T07:08:59;13.02;;;2.85;;
52322;SDS011;38263;52.920;6.238;2024-03-23T07:11:25;9.68;;;2.90;;
52322;SDS011;38263;52.920;6.238;2024-03-23T07:13:52;9.73;;;2.97;;
52322;SDS011;38263;52.920;6.238;2024-03-23T07:16:21;9.15;;;2.83;;
52322;SDS011;38263;52.920;6.238;2024-03-23T07:18:47;10.27;;;2.38;;
52322;SDS011;38263;52.920;6.238;2024-03-23T07:21:15;9.55;;;3.15;;
52322;SDS011;38263;52.920;6.238;2024-03-23T07:23:42;16.77;;;2.97;;
52322;SDS011;38263;52.920;6.238;2024-03-23T07:26:11;11.80;;;2.85;;
52322;SDS011;38263;52.920;6.238;2024-03-23T07:28:37;10.15;;;3.08;;
52322;SDS011;38263;52.920;6.238;2024-03-23T07:31:08;14.50;;;2.78;;
52322;SDS011;38263;52.920;6.238;2024-03-23T07:33:35;7.95;;;2.40;;
52322;SDS011;38263;52.920;6.238;2024-03-23T07:36:01;7.70;;;2.05;;
52322;SDS011;38263;52.920;6.238;2024-03-23T07:38:27;6.70;;;2.00;;
52322;SDS011;38263;52.920;6.238;2024-03-23T07:41:03;9.45;;;2.20;;
52322;SDS011;38263;52.920;6.238;2024-03-23T07:43:30;5.07;;;1.88;;
52322;SDS011;38263;52.920;6.238;2024-03-23T07:45:56;5.22;;;2.05;;
52322;SDS011;38263;52.920;6.238;2024-03-23T07:48:22;5.90;;;2.83;;
52322;SDS011;38263;52.920;6.238;2024-03-23T07:53:27;12.77;;;2.03;;
52322;SDS011;38263;52.920;6.238;2024-03-23T07:56:06;7.20;;;2.25;;
52322;SDS011;38263;52.920;6.238;2024-03-23T07:58:33;15.80;;;3.05;;
52322;SDS011;38263;52.920;6.238;2024-03-23T08:03:35;11.05;;;2.53;;
52322;SDS011;38263;52.920;6.238;2024-03-23T08:08:33;11.05;;;2.88;;
52322;SDS011;38263;52.920;6.238;2024-03-23T08:10:59;8.15;;;2.47;;
52322;SDS011;38263;52.920;6.238;2024-03-23T08:13:26;7.53;;;2.70;;
52322;SDS011;38263;52.920;6.238;2024-03-23T08:15:52;9.75;;;2.45;;
52322;SDS011;38263;52.920;6.238;2024-03-23T08:18:21;10.73;;;2.90;;
52322;SDS011;38263;52.920;6.238;2024-03-23T08:20:54;8.20;;;2.67;;
52322;SDS011;38263;52.920;6.238;2024-03-23T08:23:20;9.27;;;2.80;;
52322;SDS011;38263;52.920;6.238;2024-03-23T08:25:46;5.80;;;2.38;;
52322;SDS011;38263;52.920;6.238;2024-03-23T08:28:12;11.32;;;3.25;;
52322;SDS011;38263;52.920;6.238;2024-03-23T08:30:38;8.25;;;2.53;;
52322;SDS011;38263;52.920;6.238;2024-03-23T08:33:04;11.15;;;3.30;;
52322;SDS011;38263;52.920;6.238;2024-03-23T08:35:30;6.82;;;2.75;;
52322;SDS011;38263;52.920;6.238;2024-03-23T08:37:56;8.35;;;2.72;;
52322;SDS011;38263;52.920;6.238;2024-03-23T08:40:22;10.50;;;2.67;;
52322;SDS011;38263;52.920;6.238;2024-03-23T08:42:48;15.63;;;3.40;;
52322;SDS011;38263;52.920;6.238;2024-03-23T08:45:14;15.18;;;2.95;;
52322;SDS011;38263;52.920;6.238;2024-03-23T08:47:40;10.88;;;3.13;;
52322;SDS011;38263;52.920;6.238;2024-03-23T08:50:06;24.30;;;5.90;;
52322;SDS011;38263;52.920;6.238;2024-03-23T08:52:32;17.88;;;4.35;;
52322;SDS011;38263;52.920;6.238;2024-03-23T08:54:58;19.17;;;3.45;;
52322;SDS011;38263;52.920;6.238;2024-03-23T08:57:24;16.20;;;2.97;;
52322;SDS011;38263;52.920;6.238;2024-03-23T08:59:50;11.50;;;2.92;;
52322;SDS011;38263;52.920;6.238;2024-03-23T09:02:16;13.63;;;2.70;;
52322;SDS011;38263;52.920;6.238;2024-03-23T09:04:42;11.32;;;2.67;;
52322;SDS011;38263;52.920;6.238;2024-03-23T09:07:08;11.43;;;2.90;;
52322;SDS011;38263;52.920;6.238;2024-03-23T09:09:34;34.08;;;6.38;;
52322;SDS011;38263;52.920;6.238;2024-03-23T09:12:01;26.90;;;4.63;;
52322;SDS011;38263;52.920;6.238;2024-03-23T09:14:27;20.48;;;3.72;;
52322;SDS011;38263;52.920;6.238;2024-03-23T09:16:54;12.85;;;2.45;;
52322;SDS011;38263;52.920;6.238;2024-03-23T09:19:20;13.00;;;3.65;;
52322;SDS011;38263;52.920;6.238;2024-03-23T09:21:46;7.43;;;2.17;;
52322;SDS011;38263;52.920;6.238;2024-03-23T09:24:12;12.50;;;2.50;;
52322;SDS011;38263;52.920;6.238;2024-03-23T09:26:38;9.95;;;2.60;;
52322;SDS011;38263;52.920;6.238;2024-03-23T09:29:03;10.07;;;2.08;;
52322;SDS011;38263;52.920;6.238;2024-03-23T09:31:29;12.05;;;2.45;;
52322;SDS011;38263;52.920;6.238;2024-03-23T09:33:56;10.55;;;2.72;;
52322;SDS011;38263;52.920;6.238;2024-03-23T09:36:22;16.80;;;3.00;;
52322;SDS011;38263;52.920;6.238;2024-03-23T09:38:48;9.50;;;2.33;;
52322;SDS011;38263;52.920;6.238;2024-03-23T09:41:14;9.50;;;2.20;;
52322;SDS011;38263;52.920;6.238;2024-03-23T09:43:40;11.27;;;2.83;;
52322;SDS011;38263;52.920;6.238;2024-03-23T09:46:06;9.60;;;2.30;;
52322;SDS011;38263;52.920;6.238;2024-03-23T09:48:33;6.88;;;2.75;;
52322;SDS011;38263;52.920;6.238;2024-03-23T09:50:59;12.93;;;2.67;;
52322;SDS011;38263;52.920;6.238;2024-03-23T09:53:25;17.00;;;3.05;;
52322;SDS011;38263;52.920;6.238;2024-03-23T09:55:51;10.50;;;3.22;;
52322;SDS011;38263;52.920;6.238;2024-03-23T09:58:17;9.38;;;2.75;;
52322;SDS011;38263;52.920;6.238;2024-03-23T10:00:44;8.05;;;2.30;;
52322;SDS011;38263;52.920;6.238;2024-03-23T10:03:10;7.70;;;2.10;;
52322;SDS011;38263;52.920;6.238;2024-03-23T10:05:37;10.40;;;2.17;;
52322;SDS011;38263;52.920;6.238;2024-03-23T10:10:43;10.20;;;2.22;;
52322;SDS011;38263;52.920;6.238;2024-03-23T10:13:10;9.20;;;1.70;;
52322;SDS011;38263;52.920;6.238;2024-03-23T10:15:39;8.82;;;2.08;;
52322;SDS011;38263;52.920;6.238;2024-03-23T10:18:18;6.70;;;1.88;;
52322;SDS011;38263;52.920;6.238;2024-03-23T10:20:51;9.38;;;2.20;;
52322;SDS011;38263;52.920;6.238;2024-03-23T10:23:25;5.45;;;1.63;;
52322;SDS011;38263;52.920;6.238;2024-03-23T10:25:51;5.63;;;1.95;;
52322;SDS011;38263;52.920;6.238;2024-03-23T10:28:17;4.72;;;2.25;;
52322;SDS011;38263;52.920;6.238;2024-03-23T10:30:43;5.80;;;1.67;;
52322;SDS011;38263;52.920;6.238;2024-03-23T10:33:09;3.15;;;1.83;;
52322;SDS011;38263;52.920;6.238;2024-03-23T10:35:39;4.75;;;1.98;;
52322;SDS011;38263;52.920;6.238;2024-03-23T10:38:05;4.45;;;1.75;;
52322;SDS011;38263;52.920;6.238;2024-03-23T10:40:33;3.65;;;1.60;;
52322;SDS011;38263;52.920;6.238;2024-03-23T10:43:00;1.83;;;1.23;;
52322;SDS011;38263;52.920;6.238;2024-03-23T10:45:26;6.90;;;1.55;;
52322;SDS011;38263;52.920;6.238;2024-03-23T10:47:52;2.95;;;0.93;;
52322;SDS011;38263;52.920;6.238;2024-03-23T10:50:18;3.35;;;1.35;;
52322;SDS011;38263;52.920;6.238;2024-03-23T10:52:46;5.30;;;2.53;;
52322;SDS011;38263;52.920;6.238;2024-03-23T10:55:12;9.25;;;1.70;;
52322;SDS011;38263;52.920;6.238;2024-03-23T10:57:44;6.07;;;1.63;;
52322;SDS011;38263;52.920;6.238;2024-03-23T11:00:14;2.60;;;1.15;;
52322;SDS011;38263;52.920;6.238;2024-03-23T11:02:41;4.15;;;1.20;;
52322;SDS011;38263;52.920;6.238;2024-03-23T11:07:51;6.38;;;2.05;;
52322;SDS011;38263;52.920;6.238;2024-03-23T11:10:24;6.03;;;1.63;;
52322;SDS011;38263;52.920;6.238;2024-03-23T11:12:50;3.15;;;1.05;;
52322;SDS011;38263;52.920;6.238;2024-03-23T11:15:17;4.78;;;1.17;;
52322;SDS011;38263;52.920;6.238;2024-03-23T11:18:02;3.90;;;0.90;;
52322;SDS011;38263;52.920;6.238;2024-03-23T11:22:55;4.47;;;1.60;;
52322;SDS011;38263;52.920;6.238;2024-03-23T11:25:22;4.78;;;1.77;;
52322;SDS011;38263;52.920;6.238;2024-03-23T11:27:54;6.07;;;1.80;;
52322;SDS011;38263;52.920;6.238;2024-03-23T11:32:49;4.30;;;1.88;;
52322;SDS011;38263;52.920;6.238;2024-03-23T11:38:27;9.68;;;2.10;;
52322;SDS011;38263;52.920;6.238;2024-03-23T11:40:47;14.02;;;2.42;;
52322;SDS011;38263;52.920;6.238;2024-03-23T11:43:15;3.75;;;1.38;;
52322;SDS011;38263;52.920;6.238;2024-03-23T11:45:48;3.60;;;0.80;;
52322;SDS011;38263;52.920;6.238;2024-03-23T11:48:19;1.20;;;0.70;;
52322;SDS011;38263;52.920;6.238;2024-03-23T11:50:46;1.83;;;0.82;;
52322;SDS011;38263;52.920;6.238;2024-03-23T11:55:52;2.33;;;1.05;;
52322;SDS011;38263;52.920;6.238;2024-03-23T11:58:21;4.07;;;1.20;;
52322;SDS011;38263;52.920;6.238;2024-03-23T12:01:03;4.47;;;1.33;;
52322;SDS011;38263;52.920;6.238;2024-03-23T12:03:29;8.05;;;1.75;;
52322;SDS011;38263;52.920;6.238;2024-03-23T12:06:01;8.93;;;2.03;;
52322;SDS011;38263;52.920;6.238;2024-03-23T12:08:32;5.40;;;1.98;;
52322;SDS011;38263;52.920;6.238;2024-03-23T12:11:05;10.05;;;2.22;;
52322;SDS011;38263;52.920;6.238;2024-03-23T12:13:35;9.07;;;1.88;;
52322;SDS011;38263;52.920;6.238;2024-03-23T12:16:16;11.77;;;2.53;;
52322;SDS011;38263;52.920;6.238;2024-03-23T12:18:45;9.75;;;1.98;;
52322;SDS011;38263;52.920;6.238;2024-03-23T12:21:14;9.57;;;2.22;;
52322;SDS011;38263;52.920;6.238;2024-03-23T12:23:41;9.35;;;2.20;;
52322;SDS011;38263;52.920;6.238;2024-03-23T12:26:09;9.40;;;2.00;;
52322;SDS011;38263;52.920;6.238;2024-03-23T12:28:36;9.98;;;2.50;;
52322;SDS011;38263;52.920;6.238;2024-03-23T12:31:02;8.77;;;2.58;;
52322;SDS011;38263;52.920;6.238;2024-03-23T12:33:28;14.15;;;2.83;;
52322;SDS011;38263;52.920;6.238;2024-03-23T12:35:54;7.55;;;2.70;;
52322;SDS011;38263;52.920;6.238;2024-03-23T12:38:21;9.32;;;3.05;;
52322;SDS011;38263;52.920;6.238;2024-03-23T12:40:46;11.60;;;2.13;;
52322;SDS011;38263;52.920;6.238;2024-03-23T12:43:13;11.63;;;2.58;;
52322;SDS011;38263;52.920;6.238;2024-03-23T12:45:39;8.63;;;2.42;;
52322;SDS011;38263;52.920;6.238;2024-03-23T12:48:05;12.20;;;3.42;;
52322;SDS011;38263;52.920;6.238;2024-03-23T12:50:31;14.15;;;2.80;;
52322;SDS011;38263;52.920;6.238;2024-03-23T12:52:57;10.95;;;2.63;;
52322;SDS011;38263;52.920;6.238;2024-03-23T12:55:23;9.70;;;2.60;;
52322;SDS011;38263;52.920;6.238;2024-03-23T12:57:49;10.55;;;2.67;;
52322;SDS011;38263;52.920;6.238;2024-03-23T13:00:16;8.60;;;2.80;;
52322;SDS011;38263;52.920;6.238;2024-03-23T13:02:42;11.60;;;3.03;;
52322;SDS011;38263;52.920;6.238;2024-03-23T13:05:08;10.25;;;2.65;;
52322;SDS011;38263;52.920;6.238;2024-03-23T13:07:34;8.65;;;2.15;;
52322;SDS011;38263;52.920;6.238;2024-03-23T13:10:00;12.45;;;2.47;;
52322;SDS011;38263;52.920;6.238;2024-03-23T13:12:27;10.95;;;3.00;;
52322;SDS011;38263;52.920;6.238;2024-03-23T13:14:53;8.45;;;1.98;;
52322;SDS011;38263;52.920;6.238;2024-03-23T13:17:19;8.38;;;1.98;;
52322;SDS011;38263;52.920;6.238;2024-03-23T13:19:44;10.00;;;2.50;;
52322;SDS011;38263;52.920;6.238;2024-03-23T13:22:10;6.65;;;2.22;;
52322;SDS011;38263;52.920;6.238;2024-03-23T13:24:36;11.65;;;2.58;;
52322;SDS011;38263;52.920;6.238;2024-03-23T13:27:03;11.18;;;2.65;;
52322;SDS011;38263;52.920;6.238;2024-03-23T13:29:31;12.48;;;2.97;;
52322;SDS011;38263;52.920;6.238;2024-03-23T13:31:57;9.95;;;2.20;;
52322;SDS011;38263;52.920;6.238;2024-03-23T13:34:23;10.10;;;1.98;;
52322;SDS011;38263;52.920;6.238;2024-03-23T13:36:49;10.15;;;2.50;;
52322;SDS011;38263;52.920;6.238;2024-03-23T13:39:15;12.60;;;2.95;;
52322;SDS011;38263;52.920;6.238;2024-03-23T13:41:42;11.77;;;2.80;;
52322;SDS011;38263;52.920;6.238;2024-03-23T13:44:09;11.98;;;3.05;;
52322;SDS011;38263;52.920;6.238;2024-03-23T13:46:39;11.25;;;2.47;;
52322;SDS011;38263;52.920;6.238;2024-03-23T13:49:05;10.40;;;2.53;;
52322;SDS011;38263;52.920;6.238;2024-03-23T13:51:31;14.40;;;2.17;;
52322;SDS011;38263;52.920;6.238;2024-03-23T13:53:58;9.15;;;2.45;;
52322;SDS011;38263;52.920;6.238;2024-03-23T13:56:30;17.15;;;3.13;;
52322;SDS011;38263;52.920;6.238;2024-03-23T13:58:56;9.05;;;2.20;;
52322;SDS011;38263;52.920;6.238;2024-03-23T14:01:23;10.63;;;2.08;;
52322;SDS011;38263;52.920;6.238;2024-03-23T14:03:49;9.80;;;2.33;;
52322;SDS011;38263;52.920;6.238;2024-03-23T14:06:15;10.77;;;2.63;;
52322;SDS011;38263;52.920;6.238;2024-03-23T14:08:41;13.13;;;2.85;;
52322;SDS011;38263;52.920;6.238;2024-03-23T14:11:08;5.88;;;2.15;;
52322;SDS011;38263;52.920;6.238;2024-03-23T14:13:35;10.02;;;2.22;;
52322;SDS011;38263;52.920;6.238;2024-03-23T14:16:01;8.40;;;2.63;;
52322;SDS011;38263;52.920;6.238;2024-03-23T14:18:27;6.32;;;2.28;;
52322;SDS011;38263;52.920;6.238;2024-03-23T14:20:57;9.77;;;2.50;;
52322;SDS011;38263;52.920;6.238;2024-03-23T14:23:25;13.65;;;2.70;;
52322;SDS011;38263;52.920;6.238;2024-03-23T14:25:54;6.47;;;1.63;;
52322;SDS011;38263;52.920;6.238;2024-03-23T14:28:21;8.35;;;2.65;;
52322;SDS011;38263;52.920;6.238;2024-03-23T14:30:47;6.03;;;2.00;;
52322;SDS011;38263;52.920;6.238;2024-03-23T14:33:14;7.40;;;1.73;;
52322;SDS011;38263;52.920;6.238;2024-03-23T14:35:40;10.18;;;2.67;;
52322;SDS011;38263;52.920;6.238;2024-03-23T14:38:06;8.20;;;2.38;;
52322;SDS011;38263;52.920;6.238;2024-03-23T14:40:32;9.68;;;2.35;;
52322;SDS011;38263;52.920;6.238;2024-03-23T14:42:58;8.98;;;2.17;;
52322;SDS011;38263;52.920;6.238;2024-03-23T14:45:24;8.18;;;2.45;;
52322;SDS011;38263;52.920;6.238;2024-03-23T14:47:51;11.40;;;2.28;;
52322;SDS011;38263;52.920;6.238;2024-03-23T14:50:17;6.78;;;2.20;;
52322;SDS011;38263;52.920;6.238;2024-03-23T14:52:46;9.23;;;3.20;;
52322;SDS011;38263;52.920;6.238;2024-03-23T14:55:12;12.32;;;2.40;;
52322;SDS011;38263;52.920;6.238;2024-03-23T14:57:38;11.13;;;2.65;;
52322;SDS011;38263;52.920;6.238;2024-03-23T15:00:08;11.45;;;2.08;;
52322;SDS011;38263;52.920;6.238;2024-03-23T15:02:37;11.35;;;2.70;;
52322;SDS011;38263;52.920;6.238;2024-03-23T15:05:04;7.65;;;2.17;;
52322;SDS011;38263;52.920;6.238;2024-03-23T15:07:30;17.92;;;2.30;;
52322;SDS011;38263;52.920;6.238;2024-03-23T15:09:56;8.85;;;2.08;;
52322;SDS011;38263;52.920;6.238;2024-03-23T15:12:22;10.20;;;2.25;;
52322;SDS011;38263;52.920;6.238;2024-03-23T15:14:48;4.18;;;1.65;;
52322;SDS011;38263;52.920;6.238;2024-03-23T15:17:14;4.72;;;1.42;;
52322;SDS011;38263;52.920;6.238;2024-03-23T15:19:40;5.40;;;1.25;;
52322;SDS011;38263;52.920;6.238;2024-03-23T15:22:07;7.38;;;1.65;;
52322;SDS011;38263;52.920;6.238;2024-03-23T15:24:36;7.43;;;1.92;;
52322;SDS011;38263;52.920;6.238;2024-03-23T15:27:02;7.32;;;2.33;;
52322;SDS011;38263;52.920;6.238;2024-03-23T15:29:28;5.30;;;1.50;;
52322;SDS011;38263;52.920;6.238;2024-03-23T15:31:54;5.35;;;1.52;;
52322;SDS011;38263;52.920;6.238;2024-03-23T15:34:21;6.22;;;1.70;;
52322;SDS011;38263;52.920;6.238;2024-03-23T15:36:47;4.80;;;1.50;;
52322;SDS011;38263;52.920;6.238;2024-03-23T15:39:15;7.35;;;1.83;;
52322;SDS011;38263;52.920;6.238;2024-03-23T15:41:41;7.15;;;2.03;;
52322;SDS011;38263;52.920;6.238;2024-03-23T15:44:07;7.25;;;2.17;;
52322;SDS011;38263;52.920;6.238;2024-03-23T15:46:33;7.15;;;2.17;;
52322;SDS011;38263;52.920;6.238;2024-03-23T15:48:59;6.63;;;1.98;;
52322;SDS011;38263;52.920;6.238;2024-03-23T15:51:25;5.63;;;1.90;;
52322;SDS011;38263;52.920;6.238;2024-03-23T15:53:56;11.07;;;2.50;;